Time;durP1;ratioP1;P1;durP2;ratioP2;P2;SDS_P1;SDS_P2;PMS_P1;PMS_P2;Temp;Humidity;BMP_temperature;BMP_pressure;BME280_temperature;BME280_humidity;BME280_pressure;Samples;Min_cycle;Max_cycle;Signal;HPM_P1;HPM_P2
2021/12/21 00:02:15;;;;;;;;;3.75;3.25;;;;;-146.25;100.00;57879.81;5079163;27;45629;-75
2021/12/21 00:04:40;;;;;;;;;3.00;2.00;;;;;-146.25;100.00;57879.81;5078972;27;45476;-74
2021/12/21 00:07:06;;;;;;;;;4.50;4.00;;;;;-146.25;100.00;57879.81;5077748;28;46341;-74
2021/12/21 00:09:32;;;;;;;;;5.00;3.25;;;;;-146.25;100.00;57879.81;5078986;28;45552;-74
2021/12/21 00:11:59;;;;;;;;;3.50;3.00;;;;;-146.25;100.00;57879.81;5078627;27;45487;-75
2021/12/21 00:14:37;;;;;;;;;3.00;2.00;;;;;-146.25;100.00;57879.81;5074045;28;45392;-74
2021/12/21 00:23:28;;;;;;;;;4.25;3.00;;;;;-146.25;100.00;57879.81;5078394;28;45470;-73
2021/12/21 00:25:27;;;;;;;;;2.00;2.00;;;;;-146.25;100.00;57879.81;5078821;28;45588;-71
2021/12/21 00:27:53;;;;;;;;;3.50;2.50;;;;;-146.25;100.00;57879.81;5078114;27;46198;-73
2021/12/21 00:30:19;;;;;;;;;2.75;2.75;;;;;-146.25;100.00;57879.81;5078448;28;45525;-73
2021/12/21 00:32:45;;;;;;;;;1.25;1.25;;;;;-146.25;100.00;57879.81;5076065;28;45550;-73
2021/12/21 00:35:11;;;;;;;;;3.50;3.00;;;;;-146.25;100.00;57879.81;5079583;27;45480;-74
2021/12/21 00:37:41;;;;;;;;;3.50;2.00;;;;;-146.25;100.00;57879.81;5078719;27;46239;-73
2021/12/21 00:40:08;;;;;;;;;2.00;2.00;;;;;-146.25;100.00;57879.81;5076125;28;45511;-73
2021/12/21 00:42:34;;;;;;;;;2.00;2.00;;;;;-146.25;100.00;57879.81;5079122;27;45508;-75
2021/12/21 00:45:00;;;;;;;;;2.25;2.00;;;;;-146.25;100.00;57879.81;5080265;28;45458;-74
2021/12/21 00:47:25;;;;;;;;;3.50;3.50;;;;;-146.25;100.00;57879.81;5078481;27;45518;-73
2021/12/21 00:49:58;;;;;;;;;4.00;3.00;;;;;-146.25;100.00;57879.81;5079221;28;45447;-73
2021/12/21 00:52:25;;;;;;;;;3.75;3.00;;;;;-146.25;100.00;57879.81;5078664;28;45456;-73
2021/12/21 00:54:51;;;;;;;;;2.50;2.50;;;;;-146.25;100.00;57879.81;5077876;27;45392;-73
2021/12/21 00:57:17;;;;;;;;;3.00;3.00;;;;;-146.25;100.00;57879.81;5078034;27;45404;-73
2021/12/21 00:59:42;;;;;;;;;2.00;2.00;;;;;-146.25;100.00;57879.81;5077910;28;45455;-73
2021/12/21 01:02:08;;;;;;;;;2.25;2.00;;;;;-146.25;100.00;57879.81;5077734;27;46138;-73
2021/12/21 01:04:40;;;;;;;;;2.00;2.00;;;;;-146.25;100.00;57879.81;5078348;27;45442;-73
2021/12/21 01:07:18;;;;;;;;;2.75;2.75;;;;;-146.25;100.00;57879.81;5075311;28;46330;-74
2021/12/21 01:13:14;;;;;;;;;3.00;2.25;;;;;-146.25;100.00;57879.81;5074755;28;45632;-73
2021/12/21 01:15:34;;;;;;;;;3.50;2.25;;;;;-146.25;100.00;57879.81;5066648;28;45514;-74
2021/12/21 01:18:06;;;;;;;;;4.00;3.00;;;;;-146.25;100.00;57879.81;5076687;28;45560;-74
2021/12/21 01:23:28;;;;;;;;;3.00;2.25;;;;;-146.25;100.00;57879.81;5077954;27;45573;-74
2021/12/21 01:28:51;;;;;;;;;2.50;2.50;;;;;-146.25;100.00;57879.81;5076811;28;45880;-74
2021/12/21 01:31:27;;;;;;;;;2.25;2.25;;;;;-146.25;100.00;57879.81;5077379;27;45538;-73
2021/12/21 01:39:15;;;;;;;;;3.00;3.00;;;;;-146.25;100.00;57879.81;5080020;27;45880;-73
2021/12/21 01:42:39;;;;;;;;;3.50;3.00;;;;;-146.25;100.00;57879.81;5079610;27;45651;-73
2021/12/21 01:49:43;;;;;;;;;2.50;2.00;;;;;-146.25;100.00;57879.81;5078866;28;45413;-73
2021/12/21 01:52:14;;;;;;;;;4.00;3.00;;;;;-146.25;100.00;57879.81;5078765;27;45515;-72
2021/12/21 01:54:41;;;;;;;;;3.25;2.00;;;;;-146.25;100.00;57879.81;5078514;27;45460;-74
2021/12/21 01:57:08;;;;;;;;;4.00;3.00;;;;;-146.25;100.00;57879.81;5078913;28;45564;-73
2021/12/21 01:59:35;;;;;;;;;3.00;3.00;;;;;-146.25;100.00;57879.81;5078526;28;46247;-73
2021/12/21 02:02:03;;;;;;;;;2.75;2.75;;;;;-146.25;100.00;57879.81;5078510;27;45434;-74
2021/12/21 02:04:28;;;;;;;;;5.00;3.00;;;;;-146.25;100.00;57879.81;5078791;27;45414;-74
2021/12/21 02:06:54;;;;;;;;;4.00;3.00;;;;;-146.25;100.00;57879.81;5078569;28;45544;-74
2021/12/21 02:09:22;;;;;;;;;4.33;3.00;;;;;-146.25;100.00;57879.81;5079808;27;45350;-74
2021/12/21 02:11:48;;;;;;;;;5.75;5.00;;;;;-146.25;100.00;57879.81;5078843;28;45346;-73
2021/12/21 02:14:15;;;;;;;;;4.50;4.00;;;;;-146.25;100.00;57879.81;5079602;27;45410;-74
2021/12/21 02:19:29;;;;;;;;;4.75;4.00;;;;;-146.25;100.00;57879.81;5083623;27;45346;-73
2021/12/21 02:22:05;;;;;;;;;3.25;3.25;;;;;-146.25;100.00;57879.81;5078144;28;45434;-72
2021/12/21 02:24:40;;;;;;;;;5.33;4.00;;;;;-146.25;100.00;57879.81;5077915;28;45457;-72
2021/12/21 02:27:18;;;;;;;;;5.00;4.00;;;;;-146.25;100.00;57879.81;5078200;27;45623;-72
2021/12/21 02:29:44;;;;;;;;;3.67;3.00;;;;;-146.25;100.00;57879.81;5093145;27;45636;-73
2021/12/21 02:32:12;;;;;;;;;6.25;4.00;;;;;-146.25;100.00;57879.81;5078007;27;45456;-74
2021/12/21 02:34:38;;;;;;;;;2.33;2.33;;;;;-146.25;100.00;57879.81;5078669;27;45334;-73
2021/12/21 02:37:04;;;;;;;;;2.67;1.00;;;;;-146.25;100.00;57879.81;5078812;27;45171;-73
2021/12/21 02:39:29;;;;;;;;;2.33;2.00;;;;;-146.25;100.00;57879.81;5077957;27;45499;-73
2021/12/21 02:41:55;;;;;;;;;2.00;2.00;;;;;-146.25;100.00;57879.81;5078194;28;45472;-72
2021/12/21 02:44:21;;;;;;;;;2.00;2.00;;;;;-146.25;100.00;57879.81;5078282;27;45377;-73
2021/12/21 02:46:47;;;;;;;;;3.00;2.00;;;;;-146.25;100.00;57879.81;5078666;27;45443;-74
2021/12/21 02:49:13;;;;;;;;;2.33;1.00;;;;;-146.25;100.00;57879.81;5078029;27;45999;-72
2021/12/21 02:51:41;;;;;;;;;3.00;2.00;;;;;-146.25;100.00;57879.81;5078055;27;45459;-73
2021/12/21 02:54:08;;;;;;;;;2.00;2.00;;;;;-146.25;100.00;57879.81;5078097;27;45289;-72
2021/12/21 02:56:34;;;;;;;;;2.50;1.50;;;;;-146.25;100.00;57879.81;5078319;27;45257;-73
2021/12/21 02:59:00;;;;;;;;;1.25;1.25;;;;;-146.25;100.00;57879.81;5077859;28;46164;-74
2021/12/21 03:01:25;;;;;;;;;2.00;2.00;;;;;-146.25;100.00;57879.81;5078032;27;45498;-73
2021/12/21 03:03:52;;;;;;;;;2.33;2.00;;;;;-146.25;100.00;57879.81;5077813;28;45451;-73
2021/12/21 03:06:54;;;;;;;;;4.00;2.00;;;;;-146.25;100.00;57879.81;5077872;27;45411;-73
2021/12/21 03:09:13;;;;;;;;;1.00;1.00;;;;;-146.25;100.00;57879.81;5077752;27;45900;-71
2021/12/21 03:12:08;;;;;;;;;2.00;1.00;;;;;-146.25;100.00;57879.81;5076660;28;45469;-71
2021/12/21 03:14:27;;;;;;;;;1.00;0.00;;;;;-146.25;100.00;57879.81;5078544;27;45331;-74
2021/12/21 03:16:56;;;;;;;;;1.33;1.33;;;;;-146.25;100.00;57879.81;5077815;28;45445;-73
2021/12/21 03:19:21;;;;;;;;;1.33;1.33;;;;;-146.25;100.00;57879.81;5077551;27;45548;-73
2021/12/21 03:21:47;;;;;;;;;2.00;1.00;;;;;-146.25;100.00;57879.81;5077309;28;45230;-72
2021/12/21 03:24:12;;;;;;;;;2.00;2.00;;;;;-146.25;100.00;57879.81;5077732;27;45368;-74
2021/12/21 03:26:38;;;;;;;;;2.50;2.00;;;;;-146.25;100.00;57879.81;5077822;28;45458;-73
2021/12/21 03:29:05;;;;;;;;;2.00;2.00;;;;;-146.25;100.00;57879.81;5077492;28;46056;-73
2021/12/21 03:31:31;;;;;;;;;2.00;2.00;;;;;-146.25;100.00;57879.81;5077645;27;45337;-74
2021/12/21 03:33:57;;;;;;;;;1.00;1.00;;;;;-146.25;100.00;57879.81;5077443;28;45606;-72
2021/12/21 03:36:23;;;;;;;;;1.33;1.33;;;;;-146.25;100.00;57879.81;5077451;27;45345;-71
2021/12/21 03:39:03;;;;;;;;;2.00;2.00;;;;;-146.25;100.00;57879.81;5077411;27;45491;-72
2021/12/21 03:41:29;;;;;;;;;2.33;2.33;;;;;-146.25;100.00;57879.81;5079010;27;45372;-74
2021/12/21 03:43:56;;;;;;;;;1.67;1.67;;;;;-146.25;100.00;57879.81;5082108;27;45417;-74
2021/12/21 03:46:23;;;;;;;;;1.67;1.67;;;;;-146.25;100.00;57879.81;5080892;27;45413;-73
2021/12/21 03:48:49;;;;;;;;;5.67;3.00;;;;;-146.25;100.00;57879.81;5080437;28;46303;-73
2021/12/21 03:51:17;;;;;;;;;2.00;2.00;;;;;-146.25;100.00;57879.81;5080601;27;45428;-74
2021/12/21 03:53:43;;;;;;;;;2.00;2.00;;;;;-146.25;100.00;57879.81;5080809;27;45479;-74
2021/12/21 03:58:40;;;;;;;;;3.00;2.00;;;;;-146.25;100.00;57879.81;5080605;27;45522;-72
2021/12/21 04:01:06;;;;;;;;;3.00;2.67;;;;;-146.25;100.00;57879.81;5080499;27;45393;-72
2021/12/21 04:03:32;;;;;;;;;3.00;2.33;;;;;-146.25;100.00;57879.81;5080736;28;45349;-72
2021/12/21 04:05:57;;;;;;;;;6.25;4.50;;;;;-146.25;100.00;57879.81;5081027;27;45527;-74
2021/12/21 04:08:23;;;;;;;;;3.33;3.00;;;;;-146.25;100.00;57879.81;5080409;27;45979;-74
2021/12/21 04:10:48;;;;;;;;;2.67;2.67;;;;;-146.25;100.00;57879.81;5080536;28;45424;-73
2021/12/21 04:13:14;;;;;;;;;1.33;1.00;;;;;-146.25;100.00;57879.81;5080705;28;45395;-73
2021/12/21 04:15:43;;;;;;;;;2.00;2.00;;;;;-146.25;100.00;57879.81;5080485;28;45465;-74
2021/12/21 04:18:13;;;;;;;;;3.00;1.33;;;;;-146.25;100.00;57879.81;5080288;28;45465;-73
2021/12/21 04:20:39;;;;;;;;;2.00;2.00;;;;;-146.25;100.00;57879.81;5080210;27;45519;-72
2021/12/21 04:23:06;;;;;;;;;3.00;2.00;;;;;-146.25;100.00;57879.81;5080424;27;45480;-72
2021/12/21 04:25:32;;;;;;;;;3.67;2.00;;;;;-146.25;100.00;57879.81;5080703;27;45251;-73
2021/12/21 04:27:58;;;;;;;;;2.00;2.00;;;;;-146.25;100.00;57879.81;5080276;27;45988;-73
2021/12/21 04:30:24;;;;;;;;;2.00;2.00;;;;;-146.25;100.00;57879.81;5080208;28;45298;-73
2021/12/21 04:32:49;;;;;;;;;3.00;3.00;;;;;-146.25;100.00;57879.81;5080404;27;45477;-73
2021/12/21 04:35:19;;;;;;;;;2.67;2.00;;;;;-146.25;100.00;57879.81;5080194;27;45397;-74
2021/12/21 04:38:13;;;;;;;;;3.00;3.00;;;;;-146.25;100.00;57879.81;5079976;27;45366;-74
2021/12/21 04:40:43;;;;;;;;;2.00;2.00;;;;;-146.25;100.00;57879.81;5078348;28;45440;-73
2021/12/21 04:43:08;;;;;;;;;2.00;2.00;;;;;-146.25;100.00;57879.81;5080048;27;45400;-74
2021/12/21 04:45:34;;;;;;;;;3.00;2.00;;;;;-146.25;100.00;57879.81;5080673;27;45330;-72
2021/12/21 04:48:00;;;;;;;;;3.00;2.00;;;;;-146.25;100.00;57879.81;5080355;28;46147;-73
2021/12/21 04:50:26;;;;;;;;;0.33;0.33;;;;;-146.25;100.00;57879.81;5080113;27;45703;-73
2021/12/21 04:52:52;;;;;;;;;2.00;1.00;;;;;-146.25;100.00;57879.81;5081073;28;45420;-72
2021/12/21 04:55:17;;;;;;;;;2.00;2.00;;;;;-146.25;100.00;57879.81;5081098;27;45299;-72
2021/12/21 04:57:43;;;;;;;;;1.67;1.67;;;;;-146.25;100.00;57879.81;5080432;27;46054;-73
2021/12/21 05:00:10;;;;;;;;;2.33;1.00;;;;;-146.25;100.00;57879.81;5079220;28;45447;-73
2021/12/21 05:02:36;;;;;;;;;2.00;2.00;;;;;-146.25;100.00;57879.81;5080301;27;45634;-72
2021/12/21 05:05:02;;;;;;;;;2.00;2.00;;;;;-146.25;100.00;57879.81;5080440;27;45491;-74
2021/12/21 05:07:32;;;;;;;;;1.33;1.33;;;;;-146.25;100.00;57879.81;5079965;28;46185;-73
2021/12/21 05:10:00;;;;;;;;;2.00;2.00;;;;;-146.25;100.00;57879.81;5095018;27;45501;-74
2021/12/21 05:12:27;;;;;;;;;4.00;3.00;;;;;-146.25;100.00;57879.81;5080392;27;45571;-74
2021/12/21 05:14:54;;;;;;;;;2.00;2.00;;;;;-146.25;100.00;57879.81;5086292;27;45562;-73
2021/12/21 05:17:20;;;;;;;;;4.00;2.00;;;;;-146.25;100.00;57879.81;5059333;28;45517;-73
2021/12/21 05:19:46;;;;;;;;;2.00;1.67;;;;;-146.25;100.00;57879.81;5059281;28;45452;-73
2021/12/21 05:22:12;;;;;;;;;3.00;2.00;;;;;-146.25;100.00;57879.81;5059857;28;45483;-74
2021/12/21 05:24:39;;;;;;;;;3.67;2.00;;;;;-146.25;100.00;57879.81;5059235;28;45542;-72
2021/12/21 05:27:05;;;;;;;;;1.00;1.00;;;;;-146.25;100.00;57879.81;5059344;28;46120;-73
2021/12/21 05:29:32;;;;;;;;;2.00;1.00;;;;;-146.25;100.00;57879.81;5059575;28;45366;-73
2021/12/21 05:32:00;;;;;;;;;2.00;2.00;;;;;-146.25;100.00;57879.81;5058739;28;45379;-72
2021/12/21 05:34:27;;;;;;;;;3.00;3.00;;;;;-146.25;100.00;57879.81;5059350;28;45475;-74
2021/12/21 05:36:53;;;;;;;;;3.00;2.00;;;;;-146.25;100.00;57879.81;5058710;28;45568;-72
2021/12/21 05:39:23;;;;;;;;;2.00;1.00;;;;;-146.25;100.00;57879.81;5059109;28;45396;-72
2021/12/21 05:41:51;;;;;;;;;2.00;2.00;;;;;-146.25;100.00;57879.81;5059143;28;45417;-72
2021/12/21 05:44:19;;;;;;;;;2.00;2.00;;;;;-146.25;100.00;57879.81;5059567;28;45481;-74
2021/12/21 05:46:46;;;;;;;;;2.00;1.33;;;;;-146.25;100.00;57879.81;5058680;28;45446;-73
2021/12/21 05:49:12;;;;;;;;;1.00;1.00;;;;;-146.25;100.00;57879.81;5058874;28;45516;-74
2021/12/21 05:51:37;;;;;;;;;2.00;2.00;;;;;-146.25;100.00;57879.81;5058725;28;45464;-73
2021/12/21 05:54:03;;;;;;;;;2.67;2.00;;;;;-146.25;100.00;57879.81;5058881;28;45480;-73
2021/12/21 05:56:28;;;;;;;;;2.00;2.00;;;;;-146.25;100.00;57879.81;5058304;28;45518;-72
2021/12/21 05:58:54;;;;;;;;;1.33;1.00;;;;;-146.25;100.00;57879.81;5058742;28;45323;-74
2021/12/21 06:01:20;;;;;;;;;2.00;1.00;;;;;-146.25;100.00;57879.81;5058476;28;45378;-73
2021/12/21 06:03:45;;;;;;;;;3.67;1.67;;;;;-146.25;100.00;57879.81;5058082;28;45358;-72
2021/12/21 06:06:15;;;;;;;;;2.00;1.00;;;;;-146.25;100.00;57879.81;5057659;28;46109;-72
2021/12/21 06:08:43;;;;;;;;;3.00;1.00;;;;;-146.25;100.00;57879.81;5058304;28;45572;-73
2021/12/21 06:11:09;;;;;;;;;3.00;1.00;;;;;-146.25;100.00;57879.81;5058335;28;45498;-73
2021/12/21 06:13:58;;;;;;;;;2.00;1.67;;;;;-146.25;100.00;57879.81;5058409;28;45211;-74
2021/12/21 06:27:09;;;;;;;;;3.67;3.00;;;;;-146.25;100.00;57879.81;5057762;28;45822;-72
2021/12/21 06:29:34;;;;;;;;;3.00;2.00;;;;;-146.25;100.00;57879.81;5058123;28;45553;-74
2021/12/21 06:32:00;;;;;;;;;2.00;2.00;;;;;-146.25;100.00;57879.81;5057976;28;45394;-74
2021/12/21 06:34:26;;;;;;;;;2.00;2.00;;;;;-146.25;100.00;57879.81;5058355;28;45404;-74
2021/12/21 06:36:52;;;;;;;;;2.67;2.00;;;;;-146.25;100.00;57879.81;5057891;28;45485;-73
2021/12/21 06:39:18;;;;;;;;;1.00;1.00;;;;;-146.25;100.00;57879.81;5065605;28;45557;-72
2021/12/21 06:41:45;;;;;;;;;2.00;2.00;;;;;-146.25;100.00;57879.81;5065412;28;45465;-72
2021/12/21 06:44:12;;;;;;;;;3.00;2.00;;;;;-146.25;100.00;57879.81;5058676;28;45415;-73
2021/12/21 06:52:04;;;;;;;;;2.33;2.00;;;;;-146.25;100.00;57879.81;5065995;28;45682;-74
2021/12/21 06:54:30;;;;;;;;;2.00;2.00;;;;;-146.25;100.00;57879.81;5075639;28;45564;-71
2021/12/21 06:56:56;;;;;;;;;2.00;2.00;;;;;-146.25;100.00;57879.81;5076174;27;45390;-72
2021/12/21 06:59:21;;;;;;;;;2.00;2.00;;;;;-146.25;100.00;57879.81;5076406;27;45515;-68
2021/12/21 07:01:48;;;;;;;;;2.00;2.00;;;;;-146.25;100.00;57879.81;5076882;27;45398;-72
2021/12/21 07:04:17;;;;;;;;;2.00;1.00;;;;;-146.25;100.00;57879.81;5076863;27;45467;-73
2021/12/21 07:06:47;;;;;;;;;1.67;1.67;;;;;-146.25;100.00;57879.81;5076088;28;46027;-73
2021/12/21 07:09:32;;;;;;;;;3.00;2.00;;;;;-146.25;100.00;57879.81;5076229;27;46243;-73
2021/12/21 07:12:21;;;;;;;;;1.67;1.67;;;;;-146.25;100.00;57879.81;5070236;27;45374;-73
2021/12/21 07:20:20;;;;;;;;;3.00;3.00;;;;;-146.25;100.00;57879.81;5059751;28;45442;-72
2021/12/21 07:22:46;;;;;;;;;2.67;2.00;;;;;-146.25;100.00;57879.81;5059791;28;45708;-73
2021/12/21 07:25:12;;;;;;;;;2.33;2.00;;;;;-146.25;100.00;57879.81;5059697;28;45395;-73
2021/12/21 07:27:37;;;;;;;;;2.00;2.00;;;;;-146.25;100.00;57879.81;5059312;28;46128;-73
2021/12/21 07:30:05;;;;;;;;;6.00;6.00;;;;;-146.25;100.00;57879.81;5044857;28;45379;-73
2021/12/21 07:32:31;;;;;;;;;7.00;6.00;;;;;-146.25;100.00;57879.81;5059285;28;45595;-73
2021/12/21 07:34:57;;;;;;;;;4.00;3.67;;;;;-146.25;100.00;57879.81;5059385;28;45406;-73
2021/12/21 07:37:25;;;;;;;;;4.33;4.00;;;;;-146.25;100.00;57879.81;5066283;28;45527;-73
2021/12/21 07:39:51;;;;;;;;;3.00;3.00;;;;;-146.25;100.00;57879.81;5077178;28;45405;-76
2021/12/21 07:42:18;;;;;;;;;6.00;5.00;;;;;-146.25;100.00;57879.81;5076025;28;45427;-77
2021/12/21 07:44:43;;;;;;;;;5.67;5.67;;;;;-146.25;100.00;57879.81;5079080;27;45491;-76
2021/12/21 07:47:09;;;;;;;;;5.33;5.00;;;;;-146.25;100.00;57879.81;5078693;28;45972;-77
2021/12/21 07:49:35;;;;;;;;;7.00;5.00;;;;;-146.25;100.00;57879.81;5078045;28;45556;-74
2021/12/21 07:52:01;;;;;;;;;2.33;2.33;;;;;-146.25;100.00;57879.81;5079512;27;45568;-75
2021/12/21 07:54:26;;;;;;;;;7.00;6.00;;;;;-146.25;100.00;57879.81;5080342;27;45497;-74
2021/12/21 07:56:52;;;;;;;;;6.00;6.00;;;;;-146.25;100.00;57879.81;5078891;28;46639;-75
2021/12/21 07:59:17;;;;;;;;;3.00;3.00;;;;;-146.25;100.00;57879.81;5079255;28;45814;-74
2021/12/21 08:01:43;;;;;;;;;8.33;7.00;;;;;-146.25;100.00;57879.81;5078997;28;45315;-79
2021/12/21 08:04:10;;;;;;;;;15.75;14.50;;;;;-146.25;100.00;57879.81;5079048;28;45470;-76
2021/12/21 08:06:36;;;;;;;;;56.75;42.50;;;;;-146.25;100.00;57879.81;5078981;27;46249;-76
2021/12/21 08:09:04;;;;;;;;;49.75;38.25;;;;;-146.25;100.00;57879.81;5079207;27;45376;-76
2021/12/21 08:14:04;;;;;;;;;37.00;31.25;;;;;-146.25;100.00;57879.81;5079859;27;45314;-75
2021/12/21 08:16:30;;;;;;;;;30.50;29.00;;;;;-146.25;100.00;57879.81;5079323;27;45934;-76
2021/12/21 08:18:55;;;;;;;;;24.75;21.00;;;;;-146.25;100.00;57879.81;5079214;28;45466;-75
2021/12/21 08:21:23;;;;;;;;;25.75;25.25;;;;;-146.25;100.00;57879.81;5079532;27;45506;-74
2021/12/21 08:23:48;;;;;;;;;16.50;14.75;;;;;-146.25;100.00;57879.81;5079321;27;45421;-74
2021/12/21 08:26:15;;;;;;;;;17.75;15.50;;;;;-146.25;100.00;57879.81;5079062;27;45857;-76
2021/12/21 08:28:40;;;;;;;;;20.75;20.25;;;;;-146.25;100.00;57879.81;5077979;27;45395;-75
2021/12/21 08:31:10;;;;;;;;;14.25;13.50;;;;;-146.25;100.00;57879.81;5079031;28;45314;-76
2021/12/21 08:33:36;;;;;;;;;11.00;9.33;;;;;-146.25;100.00;57879.81;5077787;28;45478;-76
2021/12/21 08:36:04;;;;;;;;;10.00;9.00;;;;;-146.25;100.00;57879.81;5078642;28;46308;-76
2021/12/21 08:38:32;;;;;;;;;11.00;9.00;;;;;-146.25;100.00;57879.81;5078727;27;45525;-76
2021/12/21 08:40:59;;;;;;;;;13.50;12.00;;;;;-146.25;100.00;57879.81;5094539;27;45219;-76
2021/12/21 08:43:28;;;;;;;;;15.00;14.50;;;;;-146.25;100.00;57879.81;5079249;28;45997;-76
2021/12/21 08:45:56;;;;;;;;;13.00;11.00;;;;;-146.25;100.00;57879.81;5078743;27;46293;-76
2021/12/21 08:48:25;;;;;;;;;11.67;9.67;;;;;-146.25;100.00;57879.81;5078858;28;45445;-76
2021/12/21 08:50:56;;;;;;;;;11.00;10.00;;;;;-146.25;100.00;57879.81;5079636;27;45875;-75
2021/12/21 08:53:23;;;;;;;;;14.50;13.75;;;;;-146.25;100.00;57879.81;5079382;27;45422;-75
2021/12/21 08:55:51;;;;;;;;;10.00;9.67;;;;;-146.25;100.00;57879.81;5078646;28;46184;-75
2021/12/21 08:58:17;;;;;;;;;19.50;15.00;;;;;-146.25;100.00;57879.81;5078945;28;45413;-76
2021/12/21 09:00:43;;;;;;;;;28.50;25.75;;;;;-146.25;100.00;57879.81;5078831;27;45475;-75
2021/12/21 09:03:10;;;;;;;;;30.00;29.00;;;;;-146.25;100.00;57879.81;5079065;28;45538;-76
2021/12/21 09:05:37;;;;;;;;;32.25;26.25;;;;;-146.25;100.00;57879.81;5078806;27;46353;-76
2021/12/21 09:08:04;;;;;;;;;26.50;24.25;;;;;-146.25;100.00;57879.81;5080543;28;45290;-75
2021/12/21 09:10:31;;;;;;;;;19.75;18.75;;;;;-146.25;100.00;57879.81;5078673;27;45525;-76
2021/12/21 09:12:58;;;;;;;;;15.00;14.50;;;;;-146.25;100.00;57879.81;5079061;27;45432;-74
2021/12/21 09:15:25;;;;;;;;;12.50;12.00;;;;;-146.25;100.00;57879.81;5078655;27;45432;-75
2021/12/21 09:17:51;;;;;;;;;9.67;8.67;;;;;-146.25;100.00;57879.81;5078628;28;45286;-73
2021/12/21 09:20:21;;;;;;;;;7.67;7.67;;;;;-146.25;100.00;57879.81;5078819;27;45315;-75
2021/12/21 09:22:48;;;;;;;;;4.00;4.00;;;;;-146.25;100.00;57879.81;5077507;28;45592;-76
2021/12/21 09:25:14;;;;;;;;;19.50;15.25;;;;;-146.25;100.00;57879.81;5078419;28;45524;-76
2021/12/21 09:27:40;;;;;;;;;40.50;33.00;;;;;-146.25;100.00;57879.81;5078491;27;45373;-76
2021/12/21 09:30:10;;;;;;;;;25.75;21.00;;;;;-146.25;100.00;57879.81;5078474;27;45452;-77
2021/12/21 09:32:35;;;;;;;;;38.25;31.00;;;;;-146.25;100.00;57879.81;5078261;27;45395;-76
2021/12/21 09:35:01;;;;;;;;;34.00;30.25;;;;;-146.25;100.00;57879.81;5078193;28;45336;-76
2021/12/21 09:37:27;;;;;;;;;12.33;12.33;;;;;-146.25;100.00;57879.81;5078367;27;45404;-76
2021/12/21 09:39:55;;;;;;;;;10.33;10.33;;;;;-146.25;100.00;57879.81;5078912;28;45492;-78
2021/12/21 09:42:23;;;;;;;;;15.00;12.00;;;;;-146.25;100.00;57879.81;5078520;27;45401;-77
2021/12/21 09:44:49;;;;;;;;;10.33;9.33;;;;;-146.25;100.00;57879.81;5078098;27;46144;-77
2021/12/21 09:47:16;;;;;;;;;13.33;12.67;;;;;-146.25;100.00;57879.81;5077950;27;45538;-77
2021/12/21 09:49:43;;;;;;;;;7.67;7.00;;;;;-146.25;100.00;57879.81;5078717;27;46341;-77
2021/12/21 09:52:12;;;;;;;;;11.33;11.00;;;;;-146.25;100.00;57879.81;5078789;27;45774;-77
2021/12/21 09:54:39;;;;;;;;;10.00;7.00;;;;;-146.25;100.00;57879.81;5078075;27;45385;-77
2021/12/21 09:57:06;;;;;;;;;6.67;6.67;;;;;-146.25;100.00;57879.81;5078783;27;45288;-77
2021/12/21 09:59:32;;;;;;;;;7.00;7.00;;;;;-146.25;100.00;57879.81;5081913;27;45450;-77
2021/12/21 10:01:59;;;;;;;;;9.00;8.00;;;;;-146.25;100.00;57879.81;5079407;27;45318;-76
2021/12/21 10:04:26;;;;;;;;;11.33;11.33;;;;;-146.25;100.00;57879.81;5081878;28;46730;-76
2021/12/21 10:06:54;;;;;;;;;13.67;12.67;;;;;-146.25;100.00;57879.81;5066149;28;45343;-76
2021/12/21 10:09:23;;;;;;;;;6.67;6.33;;;;;-146.25;100.00;57879.81;5084701;27;45431;-77
2021/12/21 10:12:01;;;;;;;;;7.00;6.33;;;;;-146.25;100.00;57879.81;5082003;28;45306;-76
2021/12/21 10:14:27;;;;;;;;;14.00;13.33;;;;;-146.25;100.00;57879.81;5080519;28;47456;-76
2021/12/21 10:17:09;;;;;;;;;11.00;9.67;;;;;-146.25;100.00;57879.81;5081798;27;45382;-77
2021/12/21 10:19:43;;;;;;;;;12.67;11.33;;;;;-146.25;100.00;57879.81;5083125;27;45311;-77
2021/12/21 10:22:14;;;;;;;;;9.00;6.67;;;;;-146.25;100.00;57879.81;5081940;27;45288;-77
2021/12/21 10:24:48;;;;;;;;;11.00;8.00;;;;;-146.25;100.00;57879.81;5077059;28;45473;-77
2021/12/21 10:27:15;;;;;;;;;6.33;6.33;;;;;-146.25;100.00;57879.81;5077386;27;45782;-77
2021/12/21 10:29:42;;;;;;;;;6.00;5.00;;;;;-146.25;100.00;57879.81;5077666;27;45439;-77
2021/12/21 10:32:19;;;;;;;;;5.67;5.00;;;;;-146.25;100.00;57879.81;5078398;27;45271;-77
2021/12/21 10:34:57;;;;;;;;;4.33;4.33;;;;;-146.25;100.00;57879.81;5077022;27;45304;-77
2021/12/21 10:37:27;;;;;;;;;3.33;3.33;;;;;-146.25;100.00;57879.81;5078508;27;45338;-77
2021/12/21 10:40:10;;;;;;;;;7.33;6.00;;;;;-146.25;100.00;57879.81;5079865;28;45282;-77
2021/12/21 10:42:50;;;;;;;;;3.33;3.33;;;;;-146.25;100.00;57879.81;5078586;27;45257;-77
2021/12/21 10:45:23;;;;;;;;;4.33;4.00;;;;;-146.25;100.00;57879.81;5099833;27;47819;-77
2021/12/21 10:47:50;;;;;;;;;4.67;4.67;;;;;-146.25;100.00;57879.81;5077636;27;45339;-77
2021/12/21 10:50:15;;;;;;;;;5.67;5.67;;;;;-146.25;100.00;57879.81;5076574;28;45462;-76
2021/12/21 10:52:48;;;;;;;;;6.00;5.00;;;;;-146.25;100.00;57879.81;5077374;28;45437;-77
2021/12/21 10:55:14;;;;;;;;;10.00;8.00;;;;;-146.25;100.00;57879.81;5077185;28;45946;-76
2021/12/21 10:57:40;;;;;;;;;5.67;5.00;;;;;-146.25;100.00;57879.81;5076987;27;45464;-76
2021/12/21 11:00:13;;;;;;;;;5.67;4.00;;;;;-146.25;100.00;57879.81;5077115;28;45546;-77
2021/12/21 11:02:40;;;;;;;;;4.00;4.00;;;;;-146.25;100.00;57879.81;5077422;27;45243;-77
2021/12/21 11:05:09;;;;;;;;;5.00;5.00;;;;;-146.25;100.00;57879.81;5076973;27;45625;-76
2021/12/21 11:07:50;;;;;;;;;4.00;3.67;;;;;-146.25;100.00;57879.81;5076972;27;45527;-77
2021/12/21 11:10:25;;;;;;;;;4.00;4.00;;;;;-146.25;100.00;57879.81;5077096;27;45267;-77
2021/12/21 11:12:54;;;;;;;;;4.00;3.00;;;;;-146.25;100.00;57879.81;5077001;27;45532;-76
2021/12/21 11:15:29;;;;;;;;;7.33;6.00;;;;;-146.25;100.00;57879.81;5076772;27;45337;-76
2021/12/21 11:18:16;;;;;;;;;5.00;4.67;;;;;-146.25;100.00;57879.81;5076807;27;45505;-76
2021/12/21 11:20:44;;;;;;;;;5.00;5.00;;;;;-146.25;100.00;57879.81;5056473;28;45545;-78
2021/12/21 11:23:12;;;;;;;;;5.00;5.00;;;;;-146.25;100.00;57879.81;5057765;28;46661;-78
2021/12/21 11:25:41;;;;;;;;;2.00;2.00;;;;;-146.25;100.00;57879.81;5059610;28;46085;-79
2021/12/21 11:28:07;;;;;;;;;3.00;3.00;;;;;-146.25;100.00;57879.81;5075764;27;45607;-77
2021/12/21 11:30:34;;;;;;;;;5.67;5.33;;;;;-146.25;100.00;57879.81;5076250;28;45524;-74
2021/12/21 11:33:05;;;;;;;;;3.00;3.00;;;;;-146.25;100.00;57879.81;5075959;28;45497;-79
2021/12/21 11:38:00;;;;;;;;;3.00;2.33;;;;;-146.25;100.00;57879.81;5076378;27;45334;-77
2021/12/21 11:40:29;;;;;;;;;2.33;2.00;;;;;-146.25;100.00;57879.81;5076896;27;45353;-76
2021/12/21 11:43:28;;;;;;;;;2.33;2.00;;;;;-146.25;100.00;57879.81;5075105;28;45421;-81
2021/12/21 11:46:07;;;;;;;;;2.33;2.00;;;;;-146.25;100.00;57879.81;5055899;28;46094;-79
2021/12/21 11:48:46;;;;;;;;;4.33;4.00;;;;;-146.25;100.00;57879.81;5055686;28;45383;-78
2021/12/21 11:51:22;;;;;;;;;3.67;3.67;;;;;-146.25;100.00;57879.81;5071827;28;45482;-78
2021/12/21 11:53:48;;;;;;;;;5.67;5.67;;;;;-146.25;100.00;57879.81;5076821;27;45587;-75
2021/12/21 11:56:19;;;;;;;;;5.00;5.00;;;;;-146.25;100.00;57879.81;5076109;28;46171;-78
2021/12/21 11:58:45;;;;;;;;;3.33;3.33;;;;;-146.25;100.00;57879.81;5076581;27;45362;-77
2021/12/21 12:01:19;;;;;;;;;4.00;3.00;;;;;-146.25;100.00;57879.81;5076508;28;45432;-78
2021/12/21 12:04:05;;;;;;;;;4.00;4.00;;;;;-146.25;100.00;57879.81;5079449;28;45480;-77
2021/12/21 12:06:51;;;;;;;;;2.00;2.00;;;;;-146.25;100.00;57879.81;5079729;28;46252;-77
2021/12/21 12:09:25;;;;;;;;;3.00;2.67;;;;;-146.25;100.00;57879.81;5080629;28;45425;-77
2021/12/21 12:11:52;;;;;;;;;4.00;4.00;;;;;-146.25;100.00;57879.81;5081001;28;45559;-77